createdAt,value
2018-10-05T00:01:44.528Z,99.90
2018-10-05T00:04:19.122Z,99.90
2018-10-05T00:06:54.075Z,99.90
2018-10-05T00:09:28.197Z,99.90
2018-10-05T00:12:02.328Z,99.90
2018-10-05T00:14:36.194Z,99.90
2018-10-05T00:17:11.332Z,99.90
2018-10-05T00:19:45.872Z,99.90
2018-10-05T00:22:20.091Z,99.90
2018-10-05T00:24:54.508Z,99.90
2018-10-05T00:27:29.202Z,99.90
2018-10-05T00:30:03.127Z,99.90
2018-10-05T00:32:37.851Z,99.90
2018-10-05T00:35:12.568Z,99.90
2018-10-05T00:37:46.722Z,99.90
2018-10-05T00:40:21.221Z,99.90
2018-10-05T00:42:55.231Z,99.90
2018-10-05T00:45:29.083Z,99.90
2018-10-05T00:48:03.796Z,99.90
2018-10-05T00:50:38.101Z,99.90
2018-10-05T00:53:13.326Z,99.90
2018-10-05T00:55:48.063Z,99.90
2018-10-05T00:58:22.501Z,99.90
2018-10-05T01:00:56.813Z,99.90
2018-10-05T01:03:30.807Z,99.90
2018-10-05T01:06:05.037Z,99.90
2018-10-05T01:08:39.717Z,99.90
2018-10-05T01:11:13.965Z,99.90
2018-10-05T01:13:48.055Z,99.90
2018-10-05T01:16:22.417Z,99.90
2018-10-05T01:18:56.561Z,99.90
2018-10-05T01:21:30.679Z,99.90
2018-10-05T01:24:05.082Z,99.90
2018-10-05T01:26:40.201Z,99.90
2018-10-05T01:29:14.131Z,99.90
2018-10-05T01:31:49.201Z,99.90
2018-10-05T01:34:23.966Z,99.90
2018-10-05T01:36:58.812Z,99.90
2018-10-05T01:39:32.751Z,99.90
2018-10-05T01:42:07.547Z,99.90
2018-10-05T01:44:42.433Z,99.90
2018-10-05T01:47:16.597Z,99.90
2018-10-05T01:49:50.987Z,99.90
2018-10-05T01:52:25.913Z,99.90
2018-10-05T01:54:59.907Z,99.90
2018-10-05T01:57:34.297Z,99.90
2018-10-05T02:00:08.592Z,99.90
2018-10-05T02:02:43.100Z,99.90
2018-10-05T02:05:17.159Z,99.90
2018-10-05T02:07:51.856Z,99.90
2018-10-05T02:10:25.957Z,99.90
2018-10-05T02:13:00.066Z,99.90
2018-10-05T02:15:34.151Z,99.90
2018-10-05T02:18:09.243Z,99.90
2018-10-05T02:20:43.217Z,99.90
2018-10-05T02:23:17.218Z,99.90
2018-10-05T02:25:51.997Z,99.90
2018-10-05T02:28:26.412Z,99.90
2018-10-05T02:31:00.687Z,99.90
2018-10-05T02:33:34.863Z,99.90
2018-10-05T02:36:09.210Z,99.90
2018-10-05T02:38:43.617Z,99.90
2018-10-05T02:41:18.017Z,99.90
2018-10-05T02:43:53.045Z,99.90
2018-10-05T02:46:27.132Z,99.90
2018-10-05T02:49:01.118Z,99.90
2018-10-05T02:51:35.816Z,99.90
2018-10-05T02:54:10.200Z,99.90
2018-10-05T02:56:44.292Z,99.90
2018-10-05T02:59:19.050Z,99.90
2018-10-05T03:02:04.609Z,99.90
2018-10-05T03:04:38.906Z,99.90
2018-10-05T03:07:13.688Z,99.90
2018-10-05T03:09:47.841Z,99.90
2018-10-05T03:12:22.212Z,99.90
2018-10-05T03:14:56.283Z,99.90
2018-10-05T03:17:30.976Z,99.90
2018-10-05T03:20:05.258Z,99.90
2018-10-05T03:22:39.636Z,99.90
2018-10-05T03:25:14.409Z,99.90
2018-10-05T03:27:48.503Z,99.90
2018-10-05T03:30:22.365Z,99.90
2018-10-05T03:32:57.047Z,99.90
2018-10-05T03:35:31.583Z,99.90
2018-10-05T03:38:05.837Z,99.90
2018-10-05T03:40:40.193Z,99.90
2018-10-05T03:43:14.526Z,99.90
2018-10-05T03:45:48.832Z,99.90
2018-10-05T03:48:24.096Z,99.90
2018-10-05T03:50:58.067Z,99.90
2018-10-05T03:53:32.953Z,99.90
2018-10-05T03:56:07.702Z,99.90
2018-10-05T03:58:42.787Z,99.90
2018-10-05T04:01:16.977Z,99.90
2018-10-05T04:03:51.276Z,99.90
2018-10-05T04:06:25.312Z,99.90
2018-10-05T04:08:59.850Z,99.90
2018-10-05T04:11:34.006Z,99.90
2018-10-05T04:14:07.942Z,99.90
2018-10-05T04:16:42.908Z,99.90
2018-10-05T04:19:17.152Z,99.90
2018-10-05T04:21:51.362Z,99.90
2018-10-05T04:24:25.481Z,99.90
2018-10-05T04:26:59.613Z,99.90
2018-10-05T04:29:33.640Z,99.90
2018-10-05T04:32:07.901Z,99.90
2018-10-05T04:34:42.572Z,99.90
2018-10-05T04:37:16.856Z,99.90
2018-10-05T04:39:51.095Z,99.90
2018-10-05T04:42:25.356Z,99.90
2018-10-05T04:44:59.612Z,99.90
2018-10-05T04:47:33.865Z,99.90
2018-10-05T04:50:08.065Z,99.90
2018-10-05T04:52:42.472Z,99.90
2018-10-05T04:55:16.635Z,99.90
2018-10-05T04:57:50.673Z,99.90
2018-10-05T05:00:24.527Z,99.90
2018-10-05T05:02:58.962Z,99.90
2018-10-05T05:05:33.661Z,99.90
2018-10-05T05:08:08.647Z,99.90
2018-10-05T05:10:42.736Z,99.90
2018-10-05T05:13:17.036Z,99.90
2018-10-05T05:15:50.962Z,99.90
2018-10-05T05:18:25.103Z,99.90
2018-10-05T05:20:59.228Z,99.90
2018-10-05T05:23:33.298Z,99.90
2018-10-05T05:26:07.682Z,99.90
2018-10-05T05:28:42.266Z,99.90
2018-10-05T05:31:16.198Z,99.90
2018-10-05T05:33:51.249Z,99.90
2018-10-05T05:36:25.995Z,99.90
2018-10-05T05:39:00.097Z,99.90
2018-10-05T05:41:35.021Z,99.90
2018-10-05T05:44:09.400Z,99.90
2018-10-05T05:46:43.457Z,99.90
2018-10-05T05:49:17.735Z,99.90
2018-10-05T05:51:52.507Z,99.90
2018-10-05T05:54:26.764Z,99.90
2018-10-05T05:57:01.042Z,99.90
2018-10-05T05:59:36.681Z,99.90
2018-10-05T06:02:10.635Z,99.90
2018-10-05T06:04:44.727Z,99.90
2018-10-05T06:07:19.070Z,99.90
2018-10-05T06:09:53.306Z,99.90
2018-10-05T06:12:27.658Z,99.90
2018-10-05T06:15:02.196Z,99.90
2018-10-05T06:17:36.399Z,99.90
2018-10-05T06:20:10.971Z,99.90
2018-10-05T06:22:45.405Z,99.90
2018-10-05T06:25:23.640Z,99.90
2018-10-05T06:27:57.941Z,99.90
2018-10-05T06:30:32.541Z,99.90
2018-10-05T06:33:06.724Z,99.90
2018-10-05T06:35:40.936Z,99.90
2018-10-05T06:38:15.169Z,99.90
2018-10-05T06:40:49.271Z,99.90
2018-10-05T06:43:24.057Z,99.90
2018-10-05T06:45:58.573Z,99.90
2018-10-05T06:48:32.792Z,99.90
2018-10-05T06:51:06.882Z,99.90
2018-10-05T06:53:40.860Z,99.90
2018-10-05T06:56:15.681Z,99.90
2018-10-05T06:58:50.588Z,99.90
2018-10-05T07:01:24.820Z,99.90
2018-10-05T07:03:59.479Z,99.90
2018-10-05T07:06:33.781Z,99.90
2018-10-05T07:09:08.896Z,99.90
2018-10-05T07:11:43.366Z,99.90
2018-10-05T07:14:17.414Z,99.90
2018-10-05T07:16:51.484Z,99.90
2018-10-05T07:19:26.577Z,99.90
2018-10-05T07:22:01.365Z,99.90
2018-10-05T07:24:35.938Z,99.90
2018-10-05T07:27:09.762Z,99.90
2018-10-05T07:29:43.967Z,99.90
2018-10-05T07:32:18.131Z,99.90
2018-10-05T07:34:52.182Z,99.90
2018-10-05T07:37:26.254Z,99.90
2018-10-05T07:40:00.361Z,99.90
2018-10-05T07:42:34.613Z,99.90
2018-10-05T07:45:08.536Z,99.90
2018-10-05T07:47:42.637Z,99.90
2018-10-05T07:50:16.751Z,99.90
2018-10-05T07:52:50.790Z,99.90
2018-10-05T07:55:25.681Z,99.90
2018-10-05T07:57:59.779Z,99.90
2018-10-05T08:00:34.510Z,99.90
2018-10-05T08:03:09.162Z,99.90
2018-10-05T08:05:43.315Z,99.90
2018-10-05T08:08:17.611Z,99.90
2018-10-05T08:10:51.572Z,99.90
2018-10-05T08:13:26.290Z,99.90
2018-10-05T08:16:00.367Z,99.90
2018-10-05T08:18:34.520Z,99.90
2018-10-05T08:21:08.613Z,99.90
2018-10-05T08:23:42.770Z,99.90
2018-10-05T08:26:17.737Z,99.90
2018-10-05T08:28:52.495Z,99.90
2018-10-05T08:31:26.604Z,99.60
2018-10-05T08:34:00.937Z,99.80
2018-10-05T08:36:35.120Z,98.50
2018-10-05T08:39:10.792Z,97.60
2018-10-05T08:41:45.332Z,97.40
2018-10-05T08:44:19.455Z,96.80
2018-10-05T08:46:54.435Z,96.30
2018-10-05T08:49:28.471Z,96.20
2018-10-05T08:52:02.709Z,96.10
2018-10-05T08:54:36.838Z,95.40
2018-10-05T08:57:10.981Z,94.80
2018-10-05T08:59:45.178Z,94.20
2018-10-05T09:02:19.587Z,94.60
2018-10-05T09:04:53.815Z,94.10
2018-10-05T09:07:28.500Z,94.00
2018-10-05T09:10:03.329Z,94.20
2018-10-05T09:12:37.446Z,93.60
2018-10-05T09:15:11.541Z,92.90
2018-10-05T09:17:46.327Z,92.60
2018-10-05T09:20:20.911Z,92.30
2018-10-05T09:22:55.189Z,91.90
2018-10-05T09:25:29.335Z,92.30
2018-10-05T09:28:03.538Z,92.50
2018-10-05T09:30:38.487Z,90.90
2018-10-05T09:33:12.486Z,90.50
2018-10-05T09:35:46.880Z,90.20
2018-10-05T09:38:21.346Z,90.90
2018-10-05T09:40:55.345Z,90.40
2018-10-05T09:43:30.125Z,89.90
2018-10-05T09:46:04.566Z,90.10
2018-10-05T09:48:38.821Z,88.50
2018-10-05T09:51:13.284Z,90.20
2018-10-05T09:53:48.065Z,90.40
2018-10-05T09:56:22.936Z,90.30
2018-10-05T09:58:57.416Z,90.80
2018-10-05T10:01:36.950Z,89.60
2018-10-05T10:04:10.996Z,88.60
2018-10-05T10:06:44.976Z,88.10
2018-10-05T10:09:19.186Z,88.20
2018-10-05T10:11:54.055Z,88.40
2018-10-05T10:14:28.581Z,89.20
2018-10-05T10:17:02.857Z,87.30
2018-10-05T10:19:37.200Z,87.20
2018-10-05T10:22:11.631Z,84.80
2018-10-05T10:24:45.790Z,83.40
2018-10-05T10:27:20.840Z,82.60
2018-10-05T10:29:55.281Z,82.10
2018-10-05T10:32:30.169Z,81.80
2018-10-05T10:35:04.483Z,82.40
2018-10-05T10:37:38.488Z,80.50
2018-10-05T10:40:13.065Z,80.70
2018-10-05T10:42:47.110Z,79.90
2018-10-05T10:45:22.057Z,80.30
2018-10-05T10:47:57.763Z,80.80
2018-10-05T10:50:31.868Z,81.60
2018-10-05T10:53:06.326Z,80.70
2018-10-05T10:55:40.411Z,79.00
2018-10-05T10:58:14.322Z,77.40
2018-10-05T11:00:49.050Z,78.10
2018-10-05T11:03:23.042Z,77.20
2018-10-05T11:05:57.250Z,77.70
2018-10-05T11:08:33.152Z,78.00
2018-10-05T11:11:07.408Z,77.70
2018-10-05T11:13:41.552Z,78.10
2018-10-05T11:16:16.811Z,78.00
2018-10-05T11:18:51.013Z,78.30
2018-10-05T11:21:25.495Z,77.50
2018-10-05T11:23:59.412Z,75.60
2018-10-05T11:26:34.952Z,75.00
2018-10-05T11:29:09.912Z,77.40
2018-10-05T11:31:45.296Z,76.40
2018-10-05T11:34:19.986Z,74.60
2018-10-05T11:36:54.371Z,75.70
2018-10-05T11:39:28.435Z,74.70
2018-10-05T11:42:03.396Z,74.10
2018-10-05T11:44:37.396Z,74.10
2018-10-05T11:47:12.207Z,72.00
2018-10-05T11:49:47.022Z,71.00
2018-10-05T11:52:21.612Z,68.90
2018-10-05T11:54:55.992Z,67.60
2018-10-05T11:57:30.445Z,67.20
2018-10-05T12:00:05.169Z,67.60
2018-10-05T12:02:39.426Z,66.30
2018-10-05T12:05:14.358Z,68.20
2018-10-05T12:07:48.436Z,67.70
2018-10-05T12:10:23.481Z,65.70
2018-10-05T12:12:57.887Z,66.60
2018-10-05T12:15:32.813Z,66.10
2018-10-05T12:18:07.027Z,65.30
2018-10-05T12:20:41.068Z,65.80
2018-10-05T12:23:15.467Z,65.70
2018-10-05T12:25:49.825Z,64.80
2018-10-05T12:28:24.051Z,64.50
2018-10-05T12:30:58.151Z,65.20
2018-10-05T12:33:32.562Z,63.20
2018-10-05T12:36:06.695Z,64.30
2018-10-05T12:38:40.941Z,61.50
2018-10-05T12:41:15.221Z,61.50
2018-10-05T12:43:50.006Z,60.80
2018-10-05T12:46:25.311Z,61.30
2018-10-05T12:49:00.826Z,59.30
2018-10-05T12:51:35.071Z,59.20
2018-10-05T12:54:09.167Z,58.40
2018-10-05T12:56:43.352Z,58.50
2018-10-05T12:59:17.795Z,59.40
2018-10-05T13:01:52.820Z,58.80
2018-10-05T13:04:27.195Z,58.20
2018-10-05T13:07:02.355Z,56.70
2018-10-05T13:09:36.741Z,56.80
2018-10-05T13:12:11.141Z,56.90
2018-10-05T13:14:46.583Z,59.00
2018-10-05T13:17:21.213Z,56.80
2018-10-05T13:19:55.520Z,53.90
2018-10-05T13:22:29.541Z,52.70
2018-10-05T13:25:03.746Z,52.20
2018-10-05T13:27:38.082Z,52.50
2018-10-05T13:30:12.177Z,52.10
2018-10-05T13:32:46.737Z,51.10
2018-10-05T13:35:20.914Z,50.70
2018-10-05T13:37:55.616Z,51.80
2018-10-05T13:40:29.883Z,50.60
2018-10-05T13:43:05.525Z,50.60
2018-10-05T13:45:39.635Z,49.30
2018-10-05T13:48:14.400Z,49.80
2018-10-05T13:50:50.015Z,49.60
2018-10-05T13:53:24.202Z,48.90
2018-10-05T13:55:58.626Z,47.50
2018-10-05T13:58:32.943Z,47.70
2018-10-05T14:01:07.281Z,47.70
2018-10-05T14:03:41.716Z,47.20
2018-10-05T14:06:17.041Z,46.20
2018-10-05T14:08:51.238Z,45.70
2018-10-05T14:11:26.105Z,45.40
2018-10-05T14:14:00.591Z,44.40
2018-10-05T14:16:34.852Z,44.10
2018-10-05T14:19:08.664Z,43.60
2018-10-05T14:21:43.841Z,43.60
2018-10-05T14:24:18.891Z,44.50
2018-10-05T14:26:53.885Z,43.40
2018-10-05T14:29:28.427Z,43.00
2018-10-05T14:32:02.828Z,43.20
2018-10-05T14:34:36.743Z,43.70
2018-10-05T14:37:10.780Z,42.80
2018-10-05T14:39:44.952Z,44.10
2018-10-05T14:42:19.235Z,43.90
2018-10-05T14:44:53.357Z,42.60
2018-10-05T14:47:27.759Z,42.70
2018-10-05T14:50:02.185Z,42.80
2018-10-05T14:52:37.279Z,40.20
2018-10-05T14:55:11.699Z,41.20
2018-10-05T14:57:46.262Z,42.00
2018-10-05T15:00:20.882Z,41.90
2018-10-05T15:02:55.884Z,42.00
2018-10-05T15:05:30.676Z,41.40
2018-10-05T15:08:04.955Z,42.30
2018-10-05T15:10:39.420Z,42.50
2018-10-05T15:13:13.567Z,42.80
2018-10-05T15:15:47.774Z,42.00
2018-10-05T15:18:22.855Z,43.20
2018-10-05T15:20:57.864Z,43.60
2018-10-05T15:23:32.001Z,44.50
2018-10-05T15:26:06.616Z,42.40
2018-10-05T15:28:40.839Z,43.00
2018-10-05T15:31:15.316Z,43.40
2018-10-05T15:33:49.549Z,42.70
2018-10-05T15:36:24.149Z,43.30
2018-10-05T15:38:58.591Z,43.50
2018-10-05T15:41:32.939Z,45.20
2018-10-05T15:44:07.341Z,45.50
2018-10-05T15:47:00.276Z,45.80
2018-10-05T15:49:35.211Z,45.70
2018-10-05T15:52:10.315Z,46.40
2018-10-05T15:54:45.530Z,46.70
2018-10-05T15:57:19.936Z,46.80
2018-10-05T15:59:54.179Z,47.10
2018-10-05T16:02:28.130Z,47.50
2018-10-05T16:05:02.236Z,48.30
2018-10-05T16:07:36.520Z,49.20
2018-10-05T16:10:10.360Z,50.10
2018-10-05T16:12:45.187Z,50.20
2018-10-05T16:15:19.323Z,51.80
2018-10-05T16:17:53.806Z,50.80
2018-10-05T16:20:28.086Z,51.00
2018-10-05T16:23:02.281Z,50.70
2018-10-05T16:25:36.471Z,51.00
2018-10-05T16:28:10.782Z,52.00
2018-10-05T16:30:45.997Z,52.00
2018-10-05T16:33:20.237Z,52.10
2018-10-05T16:35:54.450Z,52.70
2018-10-05T16:38:29.292Z,52.90
2018-10-05T16:41:03.562Z,53.10
2018-10-05T16:43:38.313Z,53.10
2018-10-05T16:46:12.692Z,53.50
2018-10-05T16:48:47.117Z,54.00
2018-10-05T16:51:21.258Z,54.60
2018-10-05T16:53:55.915Z,54.40
2018-10-05T16:56:30.325Z,54.90
2018-10-05T16:59:11.797Z,54.90
2018-10-05T17:01:46.096Z,55.20
2018-10-05T17:04:20.845Z,55.40
2018-10-05T17:06:55.641Z,55.20
2018-10-05T17:09:30.149Z,55.50
2018-10-05T17:12:04.217Z,55.90
2018-10-05T17:14:38.530Z,55.60
2018-10-05T17:17:12.837Z,56.20
2018-10-05T17:19:47.015Z,56.60
2018-10-05T17:22:21.406Z,57.00
2018-10-05T17:24:55.676Z,57.50
2018-10-05T17:27:29.946Z,58.80
2018-10-05T17:30:04.775Z,59.40
2018-10-05T17:32:38.955Z,61.80
2018-10-05T17:35:13.158Z,63.60
2018-10-05T17:37:47.724Z,64.60
2018-10-05T17:40:22.130Z,65.20
2018-10-05T17:42:56.640Z,66.10
2018-10-05T17:45:30.986Z,66.80
2018-10-05T17:48:05.616Z,67.10
2018-10-05T17:50:39.538Z,66.90
2018-10-05T17:53:13.989Z,67.50
2018-10-05T17:55:48.734Z,68.10
2018-10-05T17:58:22.850Z,68.60
2018-10-05T18:00:57.104Z,68.70
2018-10-05T18:03:32.131Z,69.90
2018-10-05T18:06:06.770Z,71.20
2018-10-05T18:08:41.126Z,72.70
2018-10-05T18:11:15.875Z,74.30
2018-10-05T18:13:50.109Z,75.80
2018-10-05T18:16:25.622Z,77.90
2018-10-05T18:18:59.998Z,79.10
2018-10-05T18:21:34.571Z,80.60
2018-10-05T18:24:09.569Z,81.60
2018-10-05T18:26:43.802Z,84.10
2018-10-05T18:29:18.056Z,85.20
2018-10-05T18:31:52.290Z,86.70
2018-10-05T18:34:26.682Z,88.10
2018-10-05T18:37:01.761Z,89.60
2018-10-05T18:39:35.916Z,90.30
2018-10-05T18:42:09.961Z,91.10
2018-10-05T18:44:44.126Z,91.40
2018-10-05T18:47:18.464Z,92.10
2018-10-05T18:49:53.135Z,92.20
2018-10-05T18:52:27.355Z,92.60
2018-10-05T18:55:01.436Z,93.30
2018-10-05T18:57:36.481Z,93.90
2018-10-05T19:00:11.009Z,94.30
2018-10-05T19:02:45.392Z,94.40
2018-10-05T19:05:20.099Z,94.70
2018-10-05T19:07:54.088Z,94.80
2018-10-05T19:10:28.660Z,95.30
2018-10-05T19:13:02.758Z,95.60
2018-10-05T19:15:37.540Z,95.90
2018-10-05T19:18:11.682Z,96.60
2018-10-05T19:20:46.605Z,97.10
2018-10-05T19:23:21.494Z,97.10
2018-10-05T19:25:56.017Z,97.20
2018-10-05T19:28:30.312Z,97.80
2018-10-05T19:31:04.419Z,98.40
2018-10-05T19:33:39.134Z,98.60
2018-10-05T19:36:14.891Z,98.60
2018-10-05T19:38:48.850Z,98.90
2018-10-05T19:41:22.990Z,99.20
2018-10-05T19:43:57.100Z,99.30
2018-10-05T19:46:31.485Z,99.20
2018-10-05T19:49:05.795Z,99.40
2018-10-05T19:51:40.155Z,99.50
2018-10-05T19:54:14.466Z,99.90
2018-10-05T19:56:48.913Z,99.90
2018-10-05T19:59:23.565Z,99.90
2018-10-05T20:01:57.857Z,99.90
2018-10-05T20:04:32.096Z,99.90
2018-10-05T20:07:07.123Z,99.90
2018-10-05T20:09:41.484Z,99.90
2018-10-05T20:12:16.144Z,99.90
2018-10-05T20:14:53.475Z,99.90
2018-10-05T20:17:27.664Z,99.90
2018-10-05T20:20:02.008Z,99.90
2018-10-05T20:22:36.725Z,99.90
2018-10-05T20:25:11.052Z,99.90
2018-10-05T20:27:44.900Z,99.90
2018-10-05T20:30:19.069Z,99.90
2018-10-05T20:32:53.472Z,99.90
2018-10-05T20:35:27.807Z,99.90
2018-10-05T20:38:02.975Z,99.90
2018-10-05T20:40:38.002Z,99.90
2018-10-05T20:43:13.072Z,99.90
2018-10-05T20:45:48.155Z,99.90
2018-10-05T20:48:22.511Z,99.90
2018-10-05T20:50:56.933Z,99.90
2018-10-05T20:53:31.160Z,99.90
2018-10-05T20:56:05.350Z,99.90
2018-10-05T20:58:39.507Z,99.90
2018-10-05T21:01:14.336Z,99.90
2018-10-05T21:03:48.411Z,99.90
2018-10-05T21:06:22.603Z,99.90
2018-10-05T21:08:56.886Z,99.90
2018-10-05T21:11:31.026Z,99.90
2018-10-05T21:14:05.567Z,99.90
2018-10-05T21:16:39.569Z,99.90
2018-10-05T21:19:13.715Z,99.90
2018-10-05T21:21:47.991Z,99.90
2018-10-05T21:24:22.485Z,99.90
2018-10-05T21:26:56.347Z,99.90
2018-10-05T21:29:30.980Z,99.90
2018-10-05T21:32:05.974Z,99.90
2018-10-05T21:34:40.207Z,99.90
2018-10-05T21:37:14.596Z,99.90
2018-10-05T21:39:48.847Z,99.90
2018-10-05T21:42:22.908Z,99.90
2018-10-05T21:44:58.246Z,99.90
2018-10-05T21:47:32.613Z,99.90
2018-10-05T21:50:07.737Z,99.90
2018-10-05T21:52:42.900Z,99.90
2018-10-05T21:55:16.993Z,99.90
2018-10-05T21:57:51.842Z,99.90
2018-10-05T22:00:30.913Z,99.90
2018-10-05T22:03:05.747Z,99.90
2018-10-05T22:05:40.099Z,99.90
2018-10-05T22:08:14.561Z,99.90
2018-10-05T22:10:48.846Z,99.90
2018-10-05T22:13:23.221Z,99.90
2018-10-05T22:15:57.576Z,99.90
2018-10-05T22:18:31.895Z,99.90
2018-10-05T22:21:06.737Z,99.90
2018-10-05T22:23:41.602Z,99.90
2018-10-05T22:26:16.801Z,99.90
2018-10-05T22:28:50.865Z,99.90
2018-10-05T22:31:25.021Z,99.90
2018-10-05T22:33:59.495Z,99.90
2018-10-05T22:36:33.616Z,99.90
2018-10-05T22:39:08.001Z,99.90
2018-10-05T22:41:42.135Z,99.90
2018-10-05T22:44:16.576Z,99.90
2018-10-05T22:46:50.831Z,99.90
2018-10-05T22:49:24.874Z,99.90
2018-10-05T22:51:59.144Z,99.90
2018-10-05T22:54:33.574Z,99.90
2018-10-05T22:57:08.656Z,99.90
2018-10-05T22:59:43.823Z,99.90
2018-10-05T23:02:18.571Z,99.90
2018-10-05T23:04:53.869Z,99.90
2018-10-05T23:07:28.302Z,99.90
2018-10-05T23:10:02.334Z,99.90
2018-10-05T23:12:36.813Z,99.90
2018-10-05T23:15:11.195Z,99.90
2018-10-05T23:17:45.416Z,99.90
2018-10-05T23:20:19.680Z,99.90
2018-10-05T23:22:55.139Z,99.90
2018-10-05T23:25:29.163Z,99.90
2018-10-05T23:28:04.214Z,99.90
2018-10-05T23:30:38.276Z,99.90
2018-10-05T23:33:12.695Z,99.90
2018-10-05T23:35:47.572Z,99.90
2018-10-05T23:38:21.619Z,99.90
2018-10-05T23:40:56.499Z,99.90
2018-10-05T23:43:30.739Z,99.90
2018-10-05T23:46:05.646Z,99.90
2018-10-05T23:48:39.984Z,99.90
2018-10-05T23:51:21.489Z,99.90
2018-10-05T23:53:55.754Z,99.90
2018-10-05T23:56:29.949Z,99.90
2018-10-05T23:59:04.279Z,99.90
